RESULTATS »

INSCRITS PRESENTATS ACABEN RETIRATS DESQUALIFICATS DIST. TRAM 1 DIST. TRAM 2 DIST. TRAM 3 TEMP. EXT TEMP. AIGUA
221 138 137 1 0 750 20 5 0 0

CLASSIFICACIÓ

MASCULÍ FEMENÍ CATEGORIES CLUBS (MASCULINA) CLUBS (FEMENINA) INDIVIDUALS GRUPS D'EDAT

LLOCDORSALNOMCLUBCAT.T.META| P.Tram 1 || P.Tram 2 |Km/hTEMPS| P.Tram 3 |PARC_1PARC_2
1 2057CLAUDIA PEREZ PAYC.N. SABADELLJNF00:31:50400:11:44000:00:000.0000:00:00000:00:0000:00:0000:00:00
2 3320ALEXANDRA CASSAN-FERRIERC.N. MATAROABF00:32:001800:13:13000:00:000.0000:00:00000:00:0000:00:0000:00:00
3 1824CLAUDIA LUNA BONACHERAC.N. MATAROSUB23F00:32:553000:13:56000:00:000.0000:00:00000:00:0000:00:0000:00:00
4 5145NÚRIA PRAT LANZACLUB NATACIO MINORISAJNF00:34:592200:13:19000:00:000.0000:00:00000:00:0000:00:0000:00:00
5 8033GEMMA GREGORIS DEL SAZLLICENCIA DE DIAV1F00:35:133700:14:30000:00:000.0000:00:00000:00:0000:00:0000:00:00
6 1987JOANA MARTINEZ CARRIONC.N. MATAROV1F00:37:354600:14:59000:00:000.0000:00:00000:00:0000:00:0000:00:00
7 3231BERTA BRUGUERA LOPEZTRICBM-CALELLACDF00:38:053600:14:13000:00:000.0000:00:00000:00:0000:00:0000:00:00
8 3096LAURA MUNNÉ MASC.E.T. DISTANCESUB23F00:38:136000:16:09000:00:000.0000:00:00000:00:0000:00:0000:00:00
9 3537ALBA AMAT FERNÀNDEZCERDANYOLA CHSUB23F00:38:435400:15:30000:00:000.0000:00:00000:00:0000:00:0000:00:00
10 7013OLASAGASTI NATHALIELLICENCIA DE DIAV1F00:39:328200:18:01000:00:000.0000:00:00000:00:0000:00:0000:00:00
11 6156ANDREA HOM DIAZCLUB NATACIO VALLDOREIXABF00:39:357700:17:41000:00:000.0000:00:00000:00:0000:00:0000:00:00
12 1959VERÓNICA ÁVILA LAGOTRANSTRIATLONABF00:39:387000:17:09000:00:000.0000:00:00000:00:0000:00:0000:00:00
13 5192ANDREA MEDRANO VICENTEC. BCN TRIATHLON TOTAL3ABF00:40:197900:17:50000:00:000.0000:00:00000:00:0000:00:0000:00:00
14 8030ELISABET BUSON ROVIRALLICENCIA DE DIAABF00:43:175100:15:19000:00:000.0000:00:00000:00:0000:00:0000:00:00
15 6073VICTORIA LEON RODRIGUEZC.N. VIC-ETBV1F00:43:5510000:19:58000:00:000.0000:00:00000:00:0000:00:0000:00:00
16 8008FRANCISCA PONS BENEJAMLLICENCIA DE DIAABF00:44:2912100:22:10000:00:000.0000:00:00000:00:0000:00:0000:00:00
17 7003CRISTINA GIMENEZ-SALINAS LLICENCIA DE DIACDF00:45:089300:19:12000:00:000.0000:00:00000:00:0000:00:0000:00:00
18 1849TONA RIBAS DUCHC.E. VILA OLIMPICAV2F00:45:0912200:22:13000:00:000.0000:00:00000:00:0000:00:0000:00:00
19 3165MONTSE SUBIRANA CODINAC.N. VIC-ETBV2F00:47:009600:19:17000:00:000.0000:00:00000:00:0000:00:0000:00:00
20 5016BRITTA HENSELERC.N. REUS PLOMSV2F00:48:0112500:22:38000:00:000.0000:00:00000:00:0000:00:0000:00:00
21 5129JANA HROMCOVÁ BIELACLUB TRIATLO SABADELLV2F00:49:1513000:24:23000:00:000.0000:00:00000:00:0000:00:0000:00:00
22 20MONTSERRAT CLAVERO SANCHEC.N. REUS PLOMSV3F00:52:1712400:22:35000:00:000.0000:00:00000:00:0000:00:0000:00:00
23 7015ADRIANA RECODER FERNÁNDEZLLICENCIA DE DIAABF00:53:3713500:26:59000:00:000.0000:00:00000:00:0000:00:0000:00:00






NP 3511CHARI GONZÁLEZ CORTÉSINDEPENDENTV2F
NP 4318LAUA POUS MODOLELLINDEPENDENTABF
NP 5048MIRIAM MURILLO BLAZQUEZC.E. RAYOTEAMSUB23F
NP 5086SUSANNE MARTINEZ GARCIAGOO SPORT CLUBV1F
NP 6246ELISE MAURYFASTTRIATLON-C.N. MONTJUIABF
NP 7033ELSA MADRIGAL CANOLLICENCIA DE DIASUB23F
NP 7034EMMA VOCKINSLLICENCIA DE DIAV1F
NP 7035ADRIANA OLIVARES TOROLLICENCIA DE DIAABF
NP 7043MAR PIEDRA CAMPOYLLICENCIA DE DIAABF
NP 8001MARTA FORNLLICENCIA DE DIAV2F
NP 8027SONIA MATAS MOYALLICENCIA DE DIAABF
NP 3CARMINA CANDELLERO RAIMONC.E. VILA OLIMPICAABF
NP 2818ROSA MARÍA ABAD SEGURACLUB TRIATLO MALGRATABF

FEDERACIÓ CATALANA DE TRIATLÓ
SEU CENTRAL I CORRESPONDÈNCIA: Rambla Guipúscoa 23-25 2on-D · 08018 Barcelona · Tel / Fax : 93 307 93 35
ATENCIÓ AL PÚBLIC: Passeig Joan de Borbó, 93 (Club Natació Barcelona) · 08039 Barcelona · Tel / Fax : 93 307 93 32